| time (UTC) | temp F | wind direction | speed knots | gust knots | rain 1hr in | rain 24hr in | rain mn in | humidity % | barometer mb |
| 20260508214511 | 64 | 198 | 6.1 | 7.8 | 0.00 | 0.00 | 0.00 | 56 | 1005.9 |
| 20260508214007 | 64 | 222 | 2.6 | 2.6 | 0.00 | 0.00 | 0.00 | 55 | 1006.2 |
| 20260508213505 | 66 | 158 | 5.2 | 7.0 | 0.00 | 0.00 | 0.00 | 51 | 1006.3 |
| 20260508213000 | 66 | 311 | 4.3 | 5.2 | 0.00 | 0.00 | 0.00 | 44 | 1006.2 |
| 20260508212457 | 65 | 280 | 0.9 | 0.9 | 0.00 | 0.00 | 0.00 | 46 | 1006.2 |
| 20260508211953 | 65 | 209 | 2.6 | 2.6 | 0.00 | 0.00 | 0.00 | 46 | 1006.1 |
| 20260508211449 | 65 | 213 | 3.5 | 4.3 | 0.00 | 0.00 | 0.00 | 45 | 1006.3 |
| 20260508210946 | 66 | 269 | 2.6 | 4.3 | 0.00 | 0.00 | 0.00 | 43 | 1006.3 |
| 20260508210443 | 66 | 218 | 4.3 | 5.2 | 0.00 | 0.00 | 0.00 | 41 | 1006.2 |
| 20260508205939 | 65 | 220 | 1.7 | 2.6 | 0.00 | 0.00 | 0.00 | 40 | 1006.3 |
| 20260508205436 | 67 | 16 | 3.5 | 4.3 | 0.00 | 0.00 | 0.00 | 39 | 1006.2 |
| 20260508204932 | 66 | 256 | 2.6 | 2.6 | 0.00 | 0.00 | 0.00 | 39 | 1006.4 |
| 20260508204430 | 68 | 259 | 4.3 | 7.8 | 0.00 | 0.00 | 0.00 | 39 | 1006.5 |
| 20260508203925 | 67 | 276 | 2.6 | 2.6 | 0.00 | 0.00 | 0.00 | 38 | 1006.5 |
| 20260508203422 | 67 | 316 | 3.5 | 4.3 | 0.00 | 0.00 | 0.00 | 39 | 1006.4 |
| 20260508202917 | 67 | 264 | 2.6 | 2.6 | 0.00 | 0.00 | 0.00 | 38 | 1006.6 |
| 20260508202415 | 66 | 248 | 3.5 | 4.3 | 0.00 | 0.00 | 0.00 | 38 | 1006.6 |
| 20260508201912 | 65 | 118 | 4.3 | 6.1 | 0.00 | 0.00 | 0.00 | 39 | 1006.7 |
| 20260508201409 | 64 | 168 | 4.3 | 6.1 | 0.00 | 0.00 | 0.00 | 43 | 1006.9 |
| 20260508200905 | 64 | 217 | 0.9 | 1.7 | 0.00 | 0.00 | 0.00 | 42 | 1007.1 |
| 20260508200402 | 64 | 179 | 5.2 | 7.0 | 0.00 | 0.00 | 0.00 | 43 | 1007.1 |
| 20260508195857 | 65 | 244 | 2.6 | 2.6 | 0.00 | 0.00 | 0.00 | 41 | 1007.4 |
| 20260508195355 | 66 | 193 | 6.1 | 8.7 | 0.00 | 0.00 | 0.00 | 40 | 1007.2 |
| 20260508194851 | 65 | 213 | 2.6 | 2.6 | 0.00 | 0.00 | 0.00 | 40 | 1007.5 |
| 20260508194348 | 65 | 301 | 2.6 | 2.6 | 0.00 | 0.00 | 0.00 | 40 | 1007.4 |
| 20260508193845 | 65 | 260 | 1.7 | 1.7 | 0.00 | 0.00 | 0.00 | 40 | 1007.9 |
| 20260508193342 | 64 | 321 | 2.6 | 2.6 | 0.00 | 0.00 | 0.00 | 40 | 1007.8 |
| 20260508192838 | 63 | 217 | 0.9 | 1.7 | 0.00 | 0.00 | 0.00 | 42 | 1007.7 |
| 20260508192335 | 64 | 207 | 2.6 | 4.3 | 0.00 | 0.00 | 0.00 | 42 | 1008.0 |
| 20260508191832 | 65 | 240 | 0.9 | 1.7 | 0.00 | 0.00 | 0.00 | 39 | 1008.0 |
| 20260508191329 | 64 | 189 | 1.7 | 1.7 | 0.00 | 0.00 | 0.00 | 40 | 1008.2 |
| 20260508190827 | 64 | 167 | 3.5 | 5.2 | 0.00 | 0.00 | 0.00 | 40 | 1008.3 |
| 20260508190323 | 64 | 231 | 0.9 | 0.9 | 0.00 | 0.00 | 0.00 | 41 | 1008.2 |
| 20260508185819 | 65 | 311 | 1.7 | 1.7 | 0.00 | 0.00 | 0.00 | 39 | 1008.3 |
| 20260508185317 | 65 | 279 | 0.0 | 0.9 | 0.00 | 0.00 | 0.00 | 37 | 1008.5 |
| 20260508184814 | 65 | 207 | 5.2 | 6.1 | 0.00 | 0.00 | 0.00 | 36 | 1008.6 |
| 20260508184311 | 64 | 241 | 2.6 | 2.6 | 0.00 | 0.00 | 0.00 | 37 | 1008.4 |
| 20260508183808 | 64 | 214 | 3.5 | 4.3 | 0.00 | 0.00 | 0.00 | 35 | 1008.6 |
| 20260508183305 | 63 | 226 | 3.5 | 5.2 | 0.00 | 0.00 | 0.00 | 37 | 1008.4 |
| 20260508182800 | 63 | 322 | 4.3 | 7.0 | 0.00 | 0.00 | 0.00 | 40 | 1008.7 |
| 20260508182257 | 63 | 328 | 1.7 | 1.7 | 0.00 | 0.00 | 0.00 | 36 | 1008.4 |
| 20260508181753 | 63 | 331 | 6.1 | 7.8 | 0.00 | 0.00 | 0.00 | 40 | 1008.7 |
| 20260508181250 | 64 | 289 | 2.6 | 2.6 | 0.00 | 0.00 | 0.00 | 39 | 1008.7 |
| 20260508180747 | 63 | 276 | 3.5 | 5.2 | 0.00 | 0.00 | 0.00 | 40 | 1008.7 |
| 20260508180244 | 64 | 221 | 2.6 | 2.6 | 0.00 | 0.00 | 0.00 | 42 | 1009.1 |
| 20260508175740 | 62 | 79 | 3.5 | 4.3 | 0.00 | 0.00 | 0.00 | 41 | 1009.3 |
| 20260508175237 | 61 | 277 | 0.9 | 0.9 | 0.00 | 0.00 | 0.00 | 40 | 1009.2 |
| 20260508174735 | 62 | 272 | 5.2 | 7.0 | 0.00 | 0.00 | 0.00 | 42 | 1009.3 |
| 20260508174232 | 62 | 328 | 5.2 | 7.0 | 0.00 | 0.00 | 0.00 | 42 | 1009.4 |
| 20260508173728 | 62 | 180 | 2.6 | 2.6 | 0.00 | 0.00 | 0.00 | 40 | 1009.5 |
| 20260508173224 | 61 | 243 | 1.7 | 1.7 | 0.00 | 0.00 | 0.00 | 41 | 1009.5 |
| 20260508172721 | 60 | 336 | 1.7 | 4.3 | 0.00 | 0.00 | 0.00 | 42 | 1009.7 |
| 20260508172218 | 62 | 270 | 3.5 | 5.2 | 0.00 | 0.00 | 0.00 | 41 | 1009.9 |
| 20260508171715 | 62 | 269 | 1.7 | 2.6 | 0.00 | 0.00 | 0.00 | 42 | 1010.1 |
| 20260508171211 | 61 | 192 | 4.3 | 6.1 | 0.00 | 0.00 | 0.00 | 42 | 1009.8 |
| 20260508170708 | 62 | 280 | 0.0 | 0.9 | 0.00 | 0.00 | 0.00 | 40 | 1009.9 |
| 20260508170206 | 62 | 195 | 4.3 | 5.2 | 0.00 | 0.00 | 0.00 | 44 | 1010.1 |
| 20260508165702 | 62 | 300 | 1.7 | 1.7 | 0.00 | 0.00 | 0.00 | 41 | 1010.2 |
| 20260508165200 | 59 | 78 | 1.7 | 1.7 | 0.00 | 0.00 | 0.00 | 41 | 1010.5 |
| 20260508164656 | 60 | 286 | 3.5 | 6.1 | 0.00 | 0.00 | 0.00 | 43 | 1010.3 |
| 20260508164152 | 61 | 251 | 2.6 | 2.6 | 0.00 | 0.00 | 0.00 | 42 | 1010.5 |
| 20260508163651 | 61 | 269 | 2.6 | 2.6 | 0.00 | 0.00 | 0.00 | 44 | 1010.6 |
| 20260508163148 | 59 | 278 | 0.0 | 0.9 | 0.00 | 0.00 | 0.00 | 43 | 1010.4 |
| 20260508162643 | 60 | 247 | 0.9 | 0.9 | 0.00 | 0.00 | 0.00 | 43 | 1010.8 |
| 20260508162141 | 60 | 139 | 0.9 | 1.7 | 0.00 | 0.00 | 0.00 | 43 | 1010.8 |
| 20260508161637 | 59 | 336 | 5.2 | 6.1 | 0.00 | 0.00 | 0.00 | 43 | 1011.0 |
| 20260508161135 | 58 | 317 | 1.7 | 2.6 | 0.00 | 0.00 | 0.00 | 46 | 1010.9 |
| 20260508160633 | 58 | 252 | 0.9 | 0.9 | 0.00 | 0.00 | 0.00 | 45 | 1010.9 |
| 20260508160130 | 59 | 146 | 0.9 | 1.7 | 0.00 | 0.00 | 0.00 | 45 | 1010.9 |
| 20260508155627 | 59 | 72 | 5.2 | 6.1 | 0.00 | 0.00 | 0.00 | 45 | 1011.1 |
| 20260508155124 | 59 | 275 | 0.9 | 0.9 | 0.00 | 0.00 | 0.00 | 46 | 1010.9 |
| 20260508154621 | 58 | 242 | 1.7 | 1.7 | 0.00 | 0.00 | 0.00 | 47 | 1011.1 |
| 20260508154118 | 59 | 169 | 0.9 | 1.7 | 0.00 | 0.00 | 0.00 | 46 | 1011.0 |
| 20260508153615 | 57 | 203 | 2.6 | 2.6 | 0.00 | 0.00 | 0.00 | 49 | 1011.1 |
| 20260508153111 | 58 | 59 | 2.6 | 2.6 | 0.00 | 0.00 | 0.00 | 47 | 1011.1 |
| 20260508152608 | 58 | 169 | 3.5 | 4.3 | 0.00 | 0.00 | 0.00 | 47 | 1011.4 |
| 20260508152103 | 57 | 324 | 0.9 | 0.9 | 0.00 | 0.00 | 0.00 | 46 | 1011.3 |
| 20260508151601 | 56 | 309 | 0.9 | 0.9 | 0.00 | 0.00 | 0.00 | 50 | 1011.2 |
| 20260508151058 | 56 | 235 | 1.7 | 1.7 | 0.00 | 0.00 | 0.00 | 52 | 1011.4 |
| 20260508150555 | 57 | 218 | 0.9 | 1.7 | 0.00 | 0.00 | 0.00 | 48 | 1011.4 |
| 20260508150050 | 56 | 212 | 1.7 | 1.7 | 0.00 | 0.00 | 0.00 | 51 | 1011.4 |
| 20260508145547 | 57 | 252 | 0.0 | 0.0 | 0.00 | 0.00 | 0.00 | 53 | 1011.5 |
| 20260508145044 | 55 | 169 | 1.7 | 1.7 | 0.00 | 0.00 | 0.00 | 55 | 1011.7 |
| 20260508144542 | 57 | 239 | 2.6 | 2.6 | 0.00 | 0.00 | 0.00 | 52 | 1011.6 |
| 20260508144039 | 56 | 169 | 2.6 | 2.6 | 0.00 | 0.00 | 0.00 | 53 | 1011.6 |
| 20260508143536 | 55 | 224 | 1.7 | 1.7 | 0.00 | 0.00 | 0.00 | 55 | 1011.6 |
| 20260508143032 | 54 | 309 | 0.0 | 0.0 | 0.00 | 0.00 | 0.00 | 56 | 1011.6 |
| 20260508142530 | 55 | 334 | 1.7 | 2.6 | 0.00 | 0.00 | 0.00 | 56 | 1011.7 |
| 20260508142026 | 55 | 234 | 0.9 | 1.7 | 0.00 | 0.00 | 0.00 | 56 | 1012.0 |
| 20260508141522 | 55 | 252 | 1.7 | 2.6 | 0.00 | 0.00 | 0.00 | 58 | 1012.0 |
| 20260508141020 | 53 | 241 | 1.7 | 1.7 | 0.00 | 0.00 | 0.00 | 59 | 1011.7 |
| 20260508140518 | 53 | 257 | 0.9 | 0.9 | 0.00 | 0.00 | 0.00 | 60 | 1011.8 |
| 20260508140014 | 54 | 266 | 0.0 | 0.9 | 0.00 | 0.00 | 0.00 | 62 | 1012.0 |
| 20260508135509 | 54 | 231 | 0.0 | 0.9 | 0.00 | 0.00 | 0.00 | 63 | 1012.2 |
| 20260508135006 | 55 | 349 | 0.9 | 0.9 | 0.00 | 0.00 | 0.00 | 63 | 1012.0 |
| 20260508134502 | 53 | 275 | 0.0 | 0.0 | 0.00 | 0.00 | 0.00 | 65 | 1012.0 |
| 20260508134000 | 53 | 86 | 1.7 | 1.7 | 0.00 | 0.00 | 0.00 | 64 | 1012.0 |
| 20260508133457 | 53 | 214 | 0.9 | 0.9 | 0.00 | 0.00 | 0.00 | 67 | 1012.0 |
| 20260508132953 | 53 | 258 | 0.9 | 1.7 | 0.00 | 0.00 | 0.00 | 66 | 1012.1 |
| 20260508132452 | 53 | 264 | 0.0 | 0.0 | 0.00 | 0.00 | 0.00 | 66 | 1012.1 |
| 20260508131948 | 52 | 267 | 0.0 | 0.0 | 0.00 | 0.00 | 0.00 | 69 | 1012.2 |
| 20260508131443 | 51 | 302 | 0.9 | 0.9 | 0.00 | 0.00 | 0.00 | 70 | 1012.3 |
| 20260508130940 | 51 | 254 | 0.9 | 0.9 | 0.00 | 0.00 | 0.00 | 69 | 1012.1 |
| 20260508130438 | 51 | 0 | 0.9 | 0.9 | 0.00 | 0.00 | 0.00 | 71 | 1012.2 |
| 20260508125933 | 51 | 159 | 2.6 | 2.6 | 0.00 | 0.00 | 0.00 | 72 | 1012.1 |
| 20260508125429 | 51 | 251 | 1.7 | 1.7 | 0.00 | 0.00 | 0.00 | 71 | 1012.1 |
| 20260508124927 | 50 | 242 | 1.7 | 1.7 | 0.00 | 0.00 | 0.00 | 72 | 1012.0 |
| 20260508124425 | 50 | 238 | 1.7 | 1.7 | 0.00 | 0.00 | 0.00 | 73 | 1011.8 |
| 20260508123922 | 50 | 264 | 0.9 | 0.9 | 0.00 | 0.00 | 0.00 | 73 | 1011.9 |
| 20260508123421 | 49 | 157 | 1.7 | 1.7 | 0.00 | 0.00 | 0.00 | 73 | 1011.8 |
| 20260508122917 | 50 | 266 | 0.0 | 0.0 | 0.00 | 0.00 | 0.00 | 73 | 1011.9 |
| 20260508122414 | 50 | 242 | 0.9 | 0.9 | 0.00 | 0.00 | 0.00 | 74 | 1012.0 |
| 20260508121911 | 49 | 287 | 0.0 | 0.0 | 0.00 | 0.00 | 0.00 | 78 | 1012.0 |
| 20260508121409 | 48 | 288 | 0.0 | 0.0 | 0.00 | 0.00 | 0.00 | 80 | 1011.9 |
| 20260508120906 | 47 | 293 | 0.0 | 0.0 | 0.00 | 0.00 | 0.00 | 83 | 1012.0 |
| 20260508120404 | 47 | 306 | 0.9 | 0.9 | 0.00 | 0.00 | 0.00 | 86 | 1011.7 |
| 20260508115901 | 46 | 293 | 0.0 | 0.0 | 0.00 | 0.00 | 0.00 | 88 | 1011.7 |
| 20260508115359 | 45 | 292 | 0.0 | 0.0 | 0.00 | 0.00 | 0.00 | 90 | 1011.5 |
| 20260508114855 | 45 | 289 | 0.0 | 0.0 | 0.00 | 0.00 | 0.00 | 91 | 1011.6 |
| 20260508114352 | 44 | 288 | 0.0 | 0.0 | 0.00 | 0.00 | 0.00 | 92 | 1011.6 |
| 20260508113849 | 43 | 290 | 0.0 | 0.0 | 0.00 | 0.00 | 0.00 | 92 | 1011.3 |
| 20260508113347 | 42 | 292 | 0.0 | 0.0 | 0.00 | 0.00 | 0.00 | 93 | 1011.5 |
| 20260508112844 | 42 | 292 | 0.0 | 0.0 | 0.00 | 0.00 | 0.00 | 93 | 1011.5 |
| 20260508112341 | 41 | 291 | 0.0 | 0.0 | 0.00 | 0.00 | 0.00 | 93 | 1011.5 |
| 20260508111837 | 41 | 292 | 0.0 | 0.0 | 0.00 | 0.00 | 0.00 | 93 | 1011.3 |
| 20260508111334 | 40 | 292 | 0.0 | 0.0 | 0.00 | 0.00 | 0.00 | 93 | 1011.5 |
| 20260508110831 | 40 | 292 | 0.0 | 0.0 | 0.00 | 0.00 | 0.00 | 93 | 1011.4 |
| 20260508110329 | 40 | 298 | 0.0 | 0.0 | 0.00 | 0.00 | 0.00 | 92 | 1011.5 |
| 20260508105829 | 40 | 312 | 0.0 | 0.0 | 0.00 | 0.00 | 0.00 | 92 | 1011.3 |
| 20260508105326 | 39 | 290 | 0.0 | 0.0 | 0.00 | 0.00 | 0.00 | 92 | 1011.5 |
| 20260508104823 | 39 | 289 | 0.0 | 0.0 | 0.00 | 0.00 | 0.00 | 92 | 1011.3 |
| 20260508104319 | 39 | 294 | 0.0 | 0.0 | 0.00 | 0.00 | 0.00 | 92 | 1011.5 |
| 20260508103817 | 39 | 276 | 0.0 | 0.0 | 0.00 | 0.00 | 0.00 | 92 | 1011.5 |
| 20260508103313 | 39 | 274 | 0.0 | 0.0 | 0.00 | 0.00 | 0.00 | 92 | 1011.2 |
| 20260508102811 | 39 | 265 | 0.0 | 0.0 | 0.00 | 0.00 | 0.00 | 92 | 1011.2 |
| 20260508102309 | 39 | 291 | 0.0 | 0.0 | 0.00 | 0.00 | 0.00 | 91 | 1011.3 |
| 20260508101806 | 39 | 301 | 0.0 | 0.0 | 0.00 | 0.00 | 0.00 | 91 | 1011.1 |
| 20260508101303 | 40 | 293 | 0.0 | 0.0 | 0.00 | 0.00 | 0.00 | 91 | 1011.1 |
| 20260508100801 | 40 | 309 | 0.9 | 1.7 | 0.00 | 0.00 | 0.00 | 91 | 1011.3 |
| 20260508100259 | 40 | 317 | 0.9 | 0.9 | 0.00 | 0.00 | 0.00 | 91 | 1011.1 |
| 20260508095754 | 40 | 278 | 0.9 | 0.9 | 0.00 | 0.00 | 0.00 | 91 | 1011.2 |
| 20260508095252 | 40 | 267 | 0.0 | 0.9 | 0.00 | 0.00 | 0.00 | 91 | 1010.9 |
| 20260508094749 | 40 | 278 | 0.0 | 0.0 | 0.00 | 0.00 | 0.00 | 90 | 1011.3 |
| 20260508094246 | 40 | 280 | 0.0 | 0.0 | 0.00 | 0.00 | 0.00 | 90 | 1011.1 |
| 20260508093743 | 40 | 287 | 0.0 | 0.0 | 0.00 | 0.00 | 0.00 | 89 | 1011.0 |
| 20260508093241 | 40 | 293 | 0.0 | 0.0 | 0.00 | 0.00 | 0.00 | 89 | 1011.3 |
| 20260508092737 | 40 | 303 | 0.0 | 0.9 | 0.00 | 0.00 | 0.00 | 89 | 1011.1 |
| 20260508092236 | 41 | 304 | 0.9 | 0.9 | 0.00 | 0.00 | 0.00 | 89 | 1011.2 |
| 20260508091733 | 41 | 298 | 0.0 | 0.0 | 0.00 | 0.00 | 0.00 | 88 | 1011.1 |
| 20260508091230 | 41 | 294 | 0.0 | 0.0 | 0.00 | 0.00 | 0.00 | 88 | 1010.9 |
| 20260508090728 | 41 | 295 | 0.0 | 0.0 | 0.00 | 0.00 | 0.00 | 88 | 1011.1 |
| 20260508090225 | 41 | 293 | 0.0 | 0.0 | 0.00 | 0.00 | 0.00 | 87 | 1011.2 |
| 20260508085721 | 41 | 292 | 0.0 | 0.0 | 0.00 | 0.00 | 0.00 | 87 | 1011.3 |
| 20260508085219 | 41 | 296 | 0.0 | 0.0 | 0.00 | 0.00 | 0.00 | 86 | 1011.3 |
| 20260508084714 | 41 | 299 | 0.0 | 0.0 | 0.00 | 0.00 | 0.00 | 86 | 1011.3 |
| 20260508084212 | 42 | 293 | 0.0 | 0.0 | 0.00 | 0.00 | 0.00 | 86 | 1011.2 |
| 20260508083709 | 42 | 303 | 0.0 | 0.9 | 0.00 | 0.00 | 0.00 | 85 | 1011.1 |
| 20260508083207 | 42 | 285 | 0.0 | 0.0 | 0.00 | 0.00 | 0.00 | 85 | 1011.5 |
| 20260508082701 | 42 | 288 | 0.0 | 0.0 | 0.00 | 0.00 | 0.00 | 84 | 1011.2 |
| 20260508082159 | 43 | 293 | 0.0 | 0.0 | 0.00 | 0.00 | 0.00 | 84 | 1011.2 |
| 20260508081656 | 43 | 297 | 0.0 | 0.0 | 0.00 | 0.00 | 0.00 | 83 | 1011.3 |
| 20260508081153 | 43 | 290 | 0.0 | 0.0 | 0.00 | 0.00 | 0.00 | 82 | 1011.4 |
| 20260508080650 | 43 | 291 | 0.0 | 0.0 | 0.00 | 0.00 | 0.00 | 82 | 1011.5 |
| 20260508080149 | 44 | 293 | 0.0 | 0.0 | 0.00 | 0.00 | 0.00 | 82 | 1011.3 |
| 20260508075644 | 44 | 323 | 0.9 | 0.9 | 0.00 | 0.00 | 0.00 | 81 | 1011.4 |
| 20260508075142 | 44 | 277 | 0.0 | 0.0 | 0.00 | 0.00 | 0.00 | 81 | 1011.2 |
| 20260508074639 | 44 | 280 | 0.0 | 0.0 | 0.00 | 0.00 | 0.00 | 81 | 1011.4 |
| 20260508074136 | 44 | 280 | 0.0 | 0.0 | 0.00 | 0.00 | 0.00 | 81 | 1011.5 |
| 20260508073633 | 44 | 287 | 0.0 | 0.0 | 0.00 | 0.00 | 0.00 | 81 | 1011.6 |
| 20260508073131 | 44 | 311 | 0.9 | 0.9 | 0.00 | 0.00 | 0.00 | 81 | 1011.5 |
| 20260508072627 | 44 | 289 | 0.0 | 0.9 | 0.00 | 0.00 | 0.00 | 81 | 1011.7 |
| 20260508072124 | 44 | 284 | 0.0 | 0.0 | 0.00 | 0.00 | 0.00 | 80 | 1011.7 |
| 20260508071621 | 44 | 291 | 0.0 | 0.0 | 0.00 | 0.00 | 0.00 | 80 | 1011.6 |
| 20260508071120 | 44 | 294 | 0.0 | 0.0 | 0.00 | 0.00 | 0.00 | 80 | 1011.3 |
| 20260508070617 | 44 | 293 | 0.0 | 0.9 | 0.00 | 0.00 | 0.00 | 80 | 1011.4 |
| 20260508070115 | 44 | 285 | 0.0 | 0.0 | 0.00 | 0.00 | 0.00 | 80 | 1011.6 |
| 20260508065612 | 44 | 279 | 0.0 | 0.0 | 0.00 | 0.00 | 0.00 | 79 | 1011.4 |
| 20260508065110 | 44 | 278 | 0.0 | 0.0 | 0.00 | 0.00 | 0.00 | 79 | 1011.4 |
| 20260508064607 | 44 | 277 | 0.0 | 0.0 | 0.00 | 0.00 | 0.00 | 79 | 1011.2 |
| 20260508064105 | 44 | 291 | 0.0 | 0.0 | 0.00 | 0.00 | 0.00 | 79 | 1011.3 |
| 20260508063603 | 44 | 290 | 0.0 | 0.0 | 0.00 | 0.00 | 0.00 | 78 | 1011.3 |
| 20260508063101 | 44 | 290 | 0.0 | 0.0 | 0.00 | 0.00 | 0.00 | 78 | 1011.4 |
| 20260508062558 | 44 | 290 | 0.0 | 0.0 | 0.00 | 0.00 | 0.00 | 78 | 1011.2 |
| 20260508062054 | 44 | 290 | 0.0 | 0.0 | 0.00 | 0.00 | 0.00 | 77 | 1011.2 |
| 20260508061552 | 44 | 290 | 0.0 | 0.0 | 0.00 | 0.00 | 0.00 | 76 | 1011.4 |
| 20260508061048 | 44 | 288 | 0.0 | 0.0 | 0.00 | 0.00 | 0.00 | 75 | 1011.3 |
| 20260508060545 | 45 | 290 | 0.0 | 0.0 | 0.00 | 0.00 | 0.00 | 75 | 1011.6 |
| 20260508060043 | 45 | 289 | 0.0 | 0.0 | 0.00 | 0.00 | 0.00 | 74 | 1011.5 |
| 20260508055538 | 45 | 288 | 0.0 | 0.0 | 0.00 | 0.00 | 0.00 | 74 | 1011.7 |
| 20260508055036 | 45 | 281 | 0.0 | 0.0 | 0.00 | 0.00 | 0.00 | 73 | 1011.6 |
| 20260508054532 | 45 | 266 | 0.0 | 0.0 | 0.00 | 0.00 | 0.00 | 73 | 1011.7 |
| 20260508054029 | 46 | 280 | 0.0 | 0.0 | 0.00 | 0.00 | 0.00 | 72 | 1011.8 |
| 20260508053526 | 46 | 297 | 0.0 | 0.9 | 0.00 | 0.00 | 0.00 | 71 | 1011.6 |
| 20260508053025 | 46 | 291 | 0.0 | 0.0 | 0.00 | 0.00 | 0.00 | 71 | 1011.7 |
| 20260508052521 | 46 | 302 | 0.9 | 0.9 | 0.00 | 0.00 | 0.00 | 70 | 1011.8 |
| 20260508052018 | 47 | 290 | 0.0 | 0.0 | 0.00 | 0.00 | 0.00 | 69 | 1011.7 |
| 20260508051514 | 47 | 290 | 0.0 | 0.0 | 0.00 | 0.00 | 0.00 | 68 | 1011.6 |
| 20260508051009 | 48 | 290 | 0.0 | 0.0 | 0.00 | 0.00 | 0.00 | 67 | 1011.7 |
| 20260508050506 | 48 | 279 | 0.0 | 0.0 | 0.00 | 0.00 | 0.00 | 67 | 1011.6 |
| 20260508050003 | 48 | 274 | 0.0 | 0.0 | 0.00 | 0.00 | 0.00 | 66 | 1011.8 |
| 20260508045500 | 49 | 275 | 0.0 | 0.0 | 0.00 | 0.00 | 0.00 | 65 | 1011.6 |
| 20260508044957 | 49 | 314 | 1.7 | 1.7 | 0.00 | 0.00 | 0.00 | 64 | 1011.9 |
| 20260508044454 | 50 | 309 | 1.7 | 1.7 | 0.00 | 0.00 | 0.00 | 64 | 1011.6 |
| 20260508043949 | 51 | 311 | 1.7 | 1.7 | 0.00 | 0.00 | 0.00 | 63 | 1011.6 |
| 20260508043447 | 51 | 274 | 1.7 | 2.6 | 0.00 | 0.00 | 0.00 | 63 | 1011.6 |
| 20260508042943 | 51 | 276 | 0.9 | 0.9 | 0.00 | 0.00 | 0.00 | 62 | 1011.6 |
| 20260508042441 | 51 | 236 | 0.9 | 0.9 | 0.00 | 0.00 | 0.00 | 62 | 1011.5 |
| 20260508041938 | 51 | 207 | 2.6 | 2.6 | 0.00 | 0.00 | 0.00 | 61 | 1011.2 |
| 20260508041434 | 51 | 242 | 0.9 | 0.9 | 0.00 | 0.00 | 0.00 | 60 | 1011.3 |
| 20260508040931 | 51 | 228 | 1.7 | 1.7 | 0.00 | 0.00 | 0.00 | 59 | 1011.3 |
| 20260508040429 | 50 | 248 | 0.9 | 0.9 | 0.00 | 0.00 | 0.00 | 59 | 1011.4 |
| 20260508035926 | 50 | 266 | 0.0 | 0.0 | 0.00 | 0.00 | 0.00 | 59 | 1011.4 |
| 20260508035423 | 50 | 265 | 0.0 | 0.9 | 0.00 | 0.00 | 0.00 | 59 | 1011.2 |
| 20260508034919 | 50 | 261 | 0.9 | 0.9 | 0.00 | 0.00 | 0.00 | 59 | 1011.3 |
| 20260508034417 | 50 | 261 | 0.0 | 0.9 | 0.00 | 0.00 | 0.00 | 58 | 1011.3 |
| 20260508033913 | 51 | 266 | 0.0 | 0.0 | 0.00 | 0.00 | 0.00 | 58 | 1011.4 |
| 20260508033412 | 51 | 265 | 0.9 | 1.7 | 0.00 | 0.00 | 0.00 | 57 | 1011.3 |
| 20260508032909 | 51 | 269 | 0.0 | 0.9 | 0.00 | 0.00 | 0.00 | 56 | 1011.1 |
| 20260508032406 | 51 | 265 | 0.0 | 0.0 | 0.00 | 0.00 | 0.00 | 57 | 1011.2 |
| 20260508031903 | 52 | 235 | 0.9 | 1.7 | 0.00 | 0.00 | 0.00 | 55 | 1011.4 |
| 20260508031400 | 51 | 269 | 0.9 | 0.9 | 0.00 | 0.00 | 0.00 | 56 | 1011.5 |
| 20260508030855 | 52 | 274 | 0.0 | 0.0 | 0.00 | 0.00 | 0.00 | 55 | 1011.8 |
| 20260508030353 | 52 | 279 | 0.9 | 0.9 | 0.00 | 0.00 | 0.00 | 56 | 1011.6 |
| 20260508025850 | 51 | 262 | 1.7 | 2.6 | 0.00 | 0.00 | 0.00 | 56 | 1011.6 |
| 20260508025347 | 51 | 292 | 0.0 | 0.0 | 0.00 | 0.00 | 0.00 | 56 | 1011.6 |
| 20260508024844 | 51 | 273 | 0.9 | 0.9 | 0.00 | 0.00 | 0.00 | 57 | 1011.5 |
| 20260508024340 | 52 | 297 | 2.6 | 2.6 | 0.00 | 0.00 | 0.00 | 56 | 1011.7 |
| 20260508023837 | 52 | 317 | 2.6 | 2.6 | 0.00 | 0.00 | 0.00 | 54 | 1011.7 |
| 20260508023334 | 52 | 322 | 2.6 | 2.6 | 0.00 | 0.00 | 0.00 | 54 | 1011.8 |
| 20260508022831 | 53 | 221 | 3.5 | 4.3 | 0.00 | 0.00 | 0.00 | 53 | 1011.7 |
| 20260508022326 | 52 | 254 | 4.3 | 5.2 | 0.00 | 0.00 | 0.00 | 51 | 1011.6 |
| 20260508021824 | 52 | 278 | 0.0 | 0.0 | 0.00 | 0.00 | 0.00 | 51 | 1011.4 |
| 20260508021319 | 52 | 259 | 2.6 | 2.6 | 0.00 | 0.00 | 0.00 | 50 | 1011.5 |
| 20260508020816 | 52 | 264 | 1.7 | 1.7 | 0.00 | 0.00 | 0.00 | 50 | 1011.3 |
| 20260508020314 | 52 | 302 | 0.9 | 0.9 | 0.00 | 0.00 | 0.00 | 51 | 1011.4 |
| 20260508015810 | 52 | 301 | 0.9 | 0.9 | 0.00 | 0.00 | 0.00 | 51 | 1011.5 |
| 20260508015308 | 52 | 262 | 0.0 | 0.0 | 0.00 | 0.00 | 0.00 | 51 | 1011.4 |
| 20260508014805 | 52 | 274 | 0.0 | 0.0 | 0.00 | 0.00 | 0.00 | 51 | 1011.4 |
| 20260508014302 | 51 | 288 | 0.0 | 0.0 | 0.00 | 0.00 | 0.00 | 51 | 1011.3 |
| 20260508013757 | 52 | 280 | 0.0 | 0.0 | 0.00 | 0.00 | 0.00 | 51 | 1011.3 |
| 20260508013254 | 52 | 270 | 0.0 | 0.0 | 0.00 | 0.00 | 0.00 | 50 | 1011.0 |
| 20260508012751 | 52 | 284 | 0.0 | 0.0 | 0.00 | 0.00 | 0.00 | 49 | 1011.0 |
| 20260508012248 | 52 | 315 | 1.7 | 1.7 | 0.00 | 0.00 | 0.00 | 49 | 1010.8 |
| 20260508011746 | 52 | 297 | 0.9 | 0.9 | 0.00 | 0.00 | 0.00 | 49 | 1010.9 |
| 20260508011243 | 52 | 293 | 0.9 | 0.9 | 0.00 | 0.00 | 0.00 | 48 | 1010.5 |
| 20260508010740 | 52 | 295 | 1.7 | 1.7 | 0.00 | 0.00 | 0.00 | 48 | 1010.8 |
| 20260508010238 | 53 | 293 | 3.5 | 4.3 | 0.00 | 0.00 | 0.00 | 48 | 1010.6 |
| 20260508005735 | 53 | 312 | 0.9 | 1.7 | 0.00 | 0.00 | 0.00 | 47 | 1010.6 |
| 20260508005232 | 53 | 274 | 0.0 | 0.9 | 0.00 | 0.00 | 0.00 | 47 | 1010.5 |
| 20260508004727 | 53 | 280 | 2.6 | 4.3 | 0.00 | 0.00 | 0.00 | 47 | 1010.7 |
| 20260508004224 | 53 | 308 | 3.5 | 5.2 | 0.00 | 0.00 | 0.00 | 46 | 1010.8 |
| 20260508003720 | 53 | 238 | 2.6 | 2.6 | 0.00 | 0.00 | 0.00 | 47 | 1010.5 |
| 20260508003218 | 54 | 261 | 0.9 | 0.9 | 0.00 | 0.00 | 0.00 | 45 | 1010.4 |
| 20260508002714 | 53 | 275 | 0.9 | 0.9 | 0.00 | 0.00 | 0.00 | 45 | 1010.4 |
| 20260508002212 | 53 | 282 | 2.6 | 4.3 | 0.00 | 0.00 | 0.00 | 46 | 1010.4 |
| 20260508001707 | 54 | 280 | 1.7 | 1.7 | 0.00 | 0.00 | 0.00 | 45 | 1010.4 |
| 20260508001203 | 54 | 277 | 1.7 | 1.7 | 0.00 | 0.00 | 0.00 | 44 | 1010.6 |
| 20260508000700 | 54 | 282 | 2.6 | 4.3 | 0.00 | 0.00 | 0.00 | 44 | 1010.4 |
| 20260508000157 | 54 | 227 | 1.7 | 1.7 | 0.00 | 0.00 | 0.00 | 45 | 1010.4 |
| 20260507235653 | 54 | 321 | 2.6 | 2.6 | 0.00 | 0.00 | 0.00 | 43 | 1010.5 |
| 20260507235151 | 54 | 335 | 2.6 | 2.6 | 0.00 | 0.00 | 0.00 | 43 | 1010.4 |
| 20260507234648 | 54 | 278 | 0.9 | 1.7 | 0.00 | 0.00 | 0.00 | 43 | 1010.4 |
| 20260507234144 | 54 | 285 | 0.0 | 0.0 | 0.00 | 0.00 | 0.00 | 43 | 1010.3 |
| 20260507233641 | 55 | 311 | 1.7 | 2.6 | 0.00 | 0.00 | 0.00 | 42 | 1010.3 |
| 20260507233140 | 55 | 264 | 0.9 | 1.7 | 0.00 | 0.00 | 0.00 | 42 | 1010.2 |
| 20260507232636 | 55 | 284 | 2.6 | 4.3 | 0.00 | 0.00 | 0.00 | 42 | 1010.3 |
| 20260507232133 | 55 | 252 | 2.6 | 2.6 | 0.00 | 0.00 | 0.00 | 42 | 1010.4 |
| 20260507231629 | 55 | 263 | 3.5 | 5.2 | 0.00 | 0.00 | 0.00 | 42 | 1010.3 |
| 20260507231126 | 55 | 324 | 2.6 | 4.3 | 0.00 | 0.00 | 0.00 | 42 | 1010.3 |
| 20260507230622 | 55 | 295 | 1.7 | 1.7 | 0.00 | 0.00 | 0.00 | 42 | 1010.5 |
| 20260507230120 | 55 | 216 | 1.7 | 1.7 | 0.00 | 0.00 | 0.00 | 42 | 1010.5 |
| 20260507225614 | 55 | 268 | 2.6 | 2.6 | 0.00 | 0.00 | 0.00 | 42 | 1010.4 |
| 20260507225111 | 56 | 287 | 1.7 | 1.7 | 0.00 | 0.00 | 0.00 | 41 | 1010.3 |
| 20260507224607 | 56 | 314 | 5.2 | 7.0 | 0.00 | 0.00 | 0.00 | 40 | 1010.3 |
| 20260507224104 | 56 | 331 | 2.6 | 5.2 | 0.00 | 0.00 | 0.00 | 40 | 1010.4 |
| 20260507223600 | 56 | 298 | 4.3 | 5.2 | 0.00 | 0.00 | 0.00 | 40 | 1010.6 |
| 20260507223057 | 58 | 319 | 6.1 | 7.0 | 0.00 | 0.00 | 0.00 | 39 | 1010.7 |
| 20260507222554 | 57 | 292 | 2.6 | 4.3 | 0.00 | 0.00 | 0.00 | 40 | 1010.7 |
| 20260507222050 | 56 | 179 | 2.6 | 4.3 | 0.00 | 0.00 | 0.00 | 39 | 1010.6 |
| 20260507221547 | 56 | 289 | 2.6 | 2.6 | 0.00 | 0.00 | 0.00 | 42 | 1010.4 |
| 20260507221044 | 56 | 351 | 7.8 | 11.3 | 0.00 | 0.00 | 0.00 | 40 | 1010.6 |
| 20260507220541 | 57 | 302 | 1.7 | 2.6 | 0.00 | 0.00 | 0.00 | 40 | 1010.4 |
| 20260507220038 | 56 | 308 | 4.3 | 7.0 | 0.00 | 0.00 | 0.00 | 39 | 1010.5 |
| 20260507215534 | 55 | 342 | 6.1 | 7.8 | 0.00 | 0.00 | 0.00 | 41 | 1010.5 |
| 20260507215033 | 55 | 324 | 4.3 | 5.2 | 0.00 | 0.00 | 0.00 | 40 | 1010.5 |